Mount Holly, Ohio
Current Conditions -  °F | °C
As of 3:53 AM on Monday 20 Oct 2014 (Local Time) from KMGY Reporting Station
Clear Clear  
Wind Chill: 42°   Ceiling: Unl
Heat Index: 45°   Visibility: 10mi
Dew Point: 41°   Wind: 6mph
Humidity: 86%   Direction: 200°SSW
Pressure: 30.02"   Gusts: NA
Location:  39.5416°N, 84.0704°W
Report Text: KMGY 200753Z AUTO 20005KT 10SM CLR 07/05 A3002 RMK AO2 SLP168 T00720050
Loading
Personal Weather Stations






























Interactive Weather Map
Tropical Storm Tracking
New forecast layout! Learn more

10-Day Weather Forecast

Advertisements
Track Severe Weather on mobile